Time;durP1;ratioP1;P1;durP2;ratioP2;P2;SDS_P1;SDS_P2;PMS_P1;PMS_P2;Temp;Humidity;BMP_temperature;BMP_pressure;BME280_temperature;BME280_humidity;BME280_pressure;Samples;Min_cycle;Max_cycle;Signal;HPM_P1;HPM_P2
2022/01/05 00:00:41;;;;;;;7.47;2.55;;;7.00;99.90;;;;;;2082699;28;20025;-72
2022/01/05 00:01:42;;;;;;;6.75;2.25;;;7.00;99.90;;;;;;2087768;28;20389;-72
2022/01/05 00:02:42;;;;;;;9.93;2.80;;;7.00;99.90;;;;;;2080847;28;20021;-72
2022/01/05 00:03:43;;;;;;;10.98;2.75;;;7.00;99.90;;;;;;2080149;28;20025;-72
2022/01/05 00:04:44;;;;;;;7.25;2.13;;;7.00;99.90;;;;;;2080192;28;20039;-72
2022/01/05 00:05:44;;;;;;;5.63;1.98;;;7.00;99.90;;;;;;2085167;28;20025;-72
2022/01/05 00:06:45;;;;;;;6.97;2.45;;;6.90;99.90;;;;;;2089453;28;20437;-72
2022/01/05 00:07:45;;;;;;;11.68;2.45;;;6.90;99.90;;;;;;2089820;28;20033;-71
2022/01/05 00:08:46;;;;;;;12.15;2.92;;;7.00;99.90;;;;;;2089703;28;20013;-71
2022/01/05 00:09:46;;;;;;;14.60;2.72;;;7.00;99.90;;;;;;2089888;28;20032;-72
2022/01/05 00:10:47;;;;;;;9.13;2.92;;;6.90;99.90;;;;;;2089847;28;20017;-72
2022/01/05 00:11:47;;;;;;;7.70;2.28;;;6.90;99.90;;;;;;2090011;28;20096;-72
2022/01/05 00:12:48;;;;;;;10.75;2.92;;;6.90;99.90;;;;;;2087719;28;20013;-72
2022/01/05 00:13:49;;;;;;;9.40;2.83;;;6.90;99.90;;;;;;2081732;28;20493;-72
2022/01/05 00:14:49;;;;;;;9.25;2.50;;;6.90;99.90;;;;;;2081478;28;20025;-72
2022/01/05 00:15:50;;;;;;;5.15;2.22;;;6.90;99.90;;;;;;2081289;28;20100;-72
2022/01/05 00:16:50;;;;;;;9.13;3.20;;;7.00;99.90;;;;;;2083968;28;20022;-72
2022/01/05 00:17:51;;;;;;;5.13;2.28;;;6.90;99.90;;;;;;2089848;28;20067;-71
2022/01/05 00:18:52;;;;;;;6.22;2.63;;;7.00;99.90;;;;;;2089585;28;20025;-72
2022/01/05 00:19:52;;;;;;;8.73;2.53;;;6.90;99.90;;;;;;2089929;28;20028;-72
2022/01/05 00:20:53;;;;;;;10.55;2.67;;;7.00;99.90;;;;;;2089082;28;20025;-72
2022/01/05 00:21:53;;;;;;;7.22;2.72;;;7.00;99.90;;;;;;2080964;28;20033;-72
2022/01/05 00:22:54;;;;;;;5.50;2.47;;;7.00;99.90;;;;;;2086467;28;20067;-72
2022/01/05 00:23:55;;;;;;;11.98;2.85;;;7.00;99.90;;;;;;2081561;28;20381;-72
2022/01/05 00:24:55;;;;;;;12.68;3.65;;;7.00;99.90;;;;;;2082907;28;20028;-72
2022/01/05 00:25:56;;;;;;;6.07;2.75;;;7.00;99.90;;;;;;2089991;28;20060;-72
2022/01/05 00:26:56;;;;;;;11.60;3.28;;;7.00;99.90;;;;;;2089746;28;20469;-72
2022/01/05 00:27:57;;;;;;;7.70;3.30;;;7.00;99.90;;;;;;2089581;28;20029;-72
2022/01/05 00:28:58;;;;;;;9.65;3.05;;;7.00;99.90;;;;;;2082683;28;20030;-72
2022/01/05 00:29:58;;;;;;;10.85;4.03;;;7.00;99.90;;;;;;2084907;28;20052;-72
2022/01/05 00:30:59;;;;;;;12.07;3.83;;;7.00;99.90;;;;;;2089706;28;20484;-72
2022/01/05 00:32:02;;;;;;;10.32;3.90;;;7.10;99.90;;;;;;2082827;28;20029;-72
2022/01/05 00:33:02;;;;;;;11.75;3.88;;;7.00;99.90;;;;;;2077872;28;20022;-72
2022/01/05 00:34:03;;;;;;;11.38;3.63;;;7.00;99.90;;;;;;2081534;28;20071;-72
2022/01/05 00:35:04;;;;;;;9.93;3.72;;;7.00;99.90;;;;;;2081397;28;20502;-72
2022/01/05 00:36:05;;;;;;;8.55;3.50;;;7.00;99.90;;;;;;2082209;28;20093;-72
2022/01/05 00:37:05;;;;;;;9.38;3.50;;;7.00;99.90;;;;;;2083974;28;20034;-72
2022/01/05 00:38:06;;;;;;;10.85;3.67;;;7.10;99.90;;;;;;2092781;28;20029;-71
2022/01/05 00:39:07;;;;;;;14.73;4.20;;;7.00;99.90;;;;;;2097331;28;20484;-71
2022/01/05 00:40:08;;;;;;;12.40;4.10;;;7.00;99.90;;;;;;2082546;28;20096;-71
2022/01/05 00:41:08;;;;;;;12.70;4.32;;;7.10;99.90;;;;;;2081500;28;20496;-71
2022/01/05 00:42:09;;;;;;;9.98;3.38;;;7.10;99.90;;;;;;2081492;28;20485;-71
2022/01/05 00:43:09;;;;;;;10.20;3.78;;;7.10;99.90;;;;;;2081556;28;20028;-71
2022/01/05 00:44:10;;;;;;;8.20;3.20;;;7.00;99.90;;;;;;2081352;28;20119;-71
2022/01/05 00:45:11;;;;;;;11.23;3.33;;;7.00;99.90;;;;;;2081464;28;20071;-71
2022/01/05 00:46:11;;;;;;;9.75;2.80;;;7.10;99.90;;;;;;2083158;28;20029;-71
2022/01/05 00:47:12;;;;;;;7.68;2.75;;;7.10;99.90;;;;;;2081644;28;20550;-71
2022/01/05 00:48:12;;;;;;;10.68;3.30;;;7.10;99.90;;;;;;2087886;28;20100;-71
2022/01/05 00:49:13;;;;;;;11.32;2.83;;;7.10;99.90;;;;;;2089599;28;20033;-71
2022/01/05 00:50:14;;;;;;;6.78;2.70;;;7.10;99.90;;;;;;2088973;28;20095;-71
2022/01/05 00:51:15;;;;;;;13.98;4.13;;;7.10;99.90;;;;;;2089002;28;20079;-71
2022/01/05 00:52:15;;;;;;;8.85;2.60;;;7.10;99.90;;;;;;2086035;28;20429;-71
2022/01/05 00:53:16;;;;;;;11.07;2.80;;;7.10;99.90;;;;;;2073801;28;20029;-71
2022/01/05 00:54:17;;;;;;;5.53;2.38;;;7.10;99.90;;;;;;2079017;28;20076;-71
2022/01/05 00:55:17;;;;;;;10.70;2.90;;;7.10;99.90;;;;;;2082883;28;20021;-71
2022/01/05 00:56:18;;;;;;;6.10;2.40;;;7.10;99.90;;;;;;2085505;28;20036;-72
2022/01/05 00:57:18;;;;;;;7.40;2.70;;;7.10;99.90;;;;;;2087351;28;20024;-72
2022/01/05 00:58:19;;;;;;;12.40;3.28;;;7.10;99.90;;;;;;2081358;28;20022;-72
2022/01/05 00:59:20;;;;;;;7.70;2.50;;;7.10;99.90;;;;;;2081258;28;20044;-72
2022/01/05 01:00:20;;;;;;;7.05;3.28;;;7.10;99.90;;;;;;2081035;28;20026;-72
2022/01/05 01:01:21;;;;;;;12.30;3.08;;;7.10;99.90;;;;;;2089198;28;20366;-71
2022/01/05 01:02:21;;;;;;;9.45;3.28;;;7.10;99.90;;;;;;2084732;28;20021;-71
2022/01/05 01:03:22;;;;;;;11.02;3.22;;;7.00;99.90;;;;;;2086564;28;20504;-71
2022/01/05 01:04:23;;;;;;;6.63;2.78;;;7.00;99.90;;;;;;2087376;28;20025;-71
2022/01/05 01:05:24;;;;;;;8.43;3.33;;;7.10;99.90;;;;;;2081273;28;20396;-71
2022/01/05 01:06:24;;;;;;;8.30;3.28;;;7.00;99.90;;;;;;2081582;28;20475;-72
2022/01/05 01:07:25;;;;;;;10.18;3.58;;;7.00;99.90;;;;;;2085698;28;20025;-71
2022/01/05 01:08:26;;;;;;;7.68;3.47;;;7.00;99.90;;;;;;2088926;28;20501;-71
2022/01/05 01:09:26;;;;;;;7.60;3.03;;;7.00;99.90;;;;;;2080009;28;20017;-72
2022/01/05 01:10:27;;;;;;;9.05;3.20;;;7.00;99.90;;;;;;2081058;28;20021;-71
2022/01/05 01:11:27;;;;;;;11.13;3.65;;;7.00;99.90;;;;;;2076232;28;20032;-71
2022/01/05 01:12:28;;;;;;;8.77;3.20;;;7.00;99.90;;;;;;2077572;28;20022;-71
2022/01/05 01:13:29;;;;;;;10.63;3.53;;;7.00;99.90;;;;;;2080679;28;20104;-71
2022/01/05 01:14:29;;;;;;;9.45;3.60;;;7.00;99.90;;;;;;2073311;28;20030;-71
2022/01/05 01:15:30;;;;;;;6.75;4.03;;;7.00;99.90;;;;;;2079715;28;20037;-71
2022/01/05 01:16:30;;;;;;;9.57;3.35;;;7.00;99.90;;;;;;2081533;28;20026;-71
2022/01/05 01:17:31;;;;;;;7.53;3.65;;;6.90;99.90;;;;;;2081271;28;20014;-71
2022/01/05 01:18:33;;;;;;;11.27;3.65;;;7.00;99.90;;;;;;2080901;28;20147;-71
2022/01/05 01:19:33;;;;;;;13.05;4.03;;;7.00;99.90;;;;;;2089411;28;20017;-71
2022/01/05 01:20:34;;;;;;;10.98;3.60;;;6.90;99.90;;;;;;2089671;28;20029;-71
2022/01/05 01:21:34;;;;;;;11.05;3.78;;;6.90;99.90;;;;;;2089471;28;20028;-71
2022/01/05 01:22:36;;;;;;;12.07;3.92;;;6.90;99.90;;;;;;2089779;28;20025;-71
2022/01/05 01:23:37;;;;;;;9.48;3.92;;;6.90;99.90;;;;;;2089476;28;20032;-71
2022/01/05 01:24:38;;;;;;;10.05;3.33;;;6.90;99.90;;;;;;2089745;28;20105;-71
2022/01/05 01:25:39;;;;;;;15.95;4.20;;;6.80;99.90;;;;;;2081531;28;20026;-71
2022/01/05 01:26:39;;;;;;;7.50;3.42;;;6.80;99.90;;;;;;2084623;28;20021;-71
2022/01/05 01:27:42;;;;;;;14.30;3.45;;;6.80;99.90;;;;;;2082423;28;20021;-71
2022/01/05 01:28:43;;;;;;;10.35;3.70;;;6.80;99.90;;;;;;2088195;28;20017;-71
2022/01/05 01:29:44;;;;;;;10.88;3.55;;;6.80;99.90;;;;;;2089308;28;20052;-72
2022/01/05 01:30:44;;;;;;;11.05;3.58;;;6.80;99.90;;;;;;2089759;28;20021;-71
2022/01/05 01:31:45;;;;;;;12.82;3.55;;;6.70;99.90;;;;;;2088629;28;20126;-71
2022/01/05 01:32:45;;;;;;;10.90;3.60;;;6.70;99.90;;;;;;2085769;28;20018;-71
2022/01/05 01:33:47;;;;;;;10.15;3.85;;;6.70;99.90;;;;;;2081037;28;20552;-71
2022/01/05 01:34:47;;;;;;;9.07;3.67;;;6.70;99.90;;;;;;2082254;28;20025;-71
2022/01/05 01:35:48;;;;;;;9.43;3.80;;;6.70;99.90;;;;;;2073173;28;20022;-71
2022/01/05 01:36:49;;;;;;;10.98;3.90;;;6.70;99.90;;;;;;2087971;28;20037;-71
2022/01/05 01:37:49;;;;;;;15.25;4.15;;;6.70;99.90;;;;;;2092380;28;20033;-72
2022/01/05 01:38:50;;;;;;;9.88;4.07;;;6.70;99.90;;;;;;2088500;28;20116;-72
2022/01/05 01:39:51;;;;;;;12.52;3.83;;;6.70;99.90;;;;;;2082502;28;20457;-71
2022/01/05 01:40:51;;;;;;;9.75;3.38;;;6.70;99.90;;;;;;2082546;28;20076;-71
2022/01/05 01:41:52;;;;;;;12.45;3.97;;;6.60;99.90;;;;;;2082869;28;20022;-71
2022/01/05 01:42:52;;;;;;;12.95;3.85;;;6.60;99.90;;;;;;2085822;28;20021;-71
2022/01/05 01:43:53;;;;;;;10.63;3.90;;;6.60;99.90;;;;;;2085346;28;20043;-71
2022/01/05 01:44:53;;;;;;;10.70;3.47;;;6.60;99.90;;;;;;2081525;28;20551;-71
2022/01/05 01:45:54;;;;;;;15.90;4.63;;;6.60;99.90;;;;;;2083596;28;20036;-71
2022/01/05 01:46:55;;;;;;;7.75;3.33;;;6.60;99.90;;;;;;2090968;28;20031;-71
2022/01/05 01:47:55;;;;;;;8.40;3.58;;;6.60;99.90;;;;;;2091017;28;20499;-71
2022/01/05 01:48:56;;;;;;;10.32;4.10;;;6.60;99.90;;;;;;2090791;28;20025;-71
2022/01/05 01:49:56;;;;;;;9.27;3.90;;;6.60;99.90;;;;;;2090060;28;20465;-71
2022/01/05 01:50:57;;;;;;;12.43;3.80;;;6.60;99.90;;;;;;2081944;28;20062;-71
2022/01/05 01:51:58;;;;;;;10.70;3.20;;;6.50;99.90;;;;;;2081953;28;20053;-71
2022/01/05 01:52:59;;;;;;;12.93;3.60;;;6.50;99.90;;;;;;2081972;28;20017;-71
2022/01/05 01:54:01;;;;;;;12.48;3.60;;;6.50;99.90;;;;;;2078387;28;20022;-71
2022/01/05 01:55:02;;;;;;;14.18;5.10;;;6.50;99.90;;;;;;2082492;28;20025;-71
2022/01/05 01:56:06;;;;;;;14.48;4.50;;;6.50;99.90;;;;;;2087019;28;20683;-71
2022/01/05 01:57:07;;;;;;;9.48;3.90;;;6.50;99.90;;;;;;2089997;28;20021;-72
2022/01/05 01:58:08;;;;;;;12.38;3.78;;;6.50;99.90;;;;;;2075831;28;20105;-71
2022/01/05 01:59:08;;;;;;;11.60;4.38;;;6.50;99.90;;;;;;2082341;28;20033;-71
2022/01/05 02:00:16;;;;;;;10.95;3.65;;;6.50;99.90;;;;;;2091247;28;20539;-71
2022/01/05 02:01:19;;;;;;;10.77;4.00;;;6.60;99.90;;;;;;2090901;28;20100;-71
2022/01/05 02:02:23;;;;;;;16.50;4.65;;;6.60;99.90;;;;;;2085340;28;20108;-71
2022/01/05 02:03:24;;;;;;;13.23;4.85;;;6.60;99.90;;;;;;2078906;28;20072;-71
2022/01/05 02:04:25;;;;;;;14.50;4.18;;;6.60;99.90;;;;;;2075693;28;20072;-71
2022/01/05 02:05:26;;;;;;;13.65;4.50;;;6.60;99.90;;;;;;2079146;28;20034;-71
2022/01/05 02:06:26;;;;;;;9.07;4.22;;;6.60;99.90;;;;;;2080940;28;20068;-71
2022/01/05 02:07:27;;;;;;;12.50;4.38;;;6.50;99.90;;;;;;2080744;28;20018;-71
2022/01/05 02:08:28;;;;;;;12.10;5.10;;;6.50;99.90;;;;;;2073669;28;20069;-71
2022/01/05 02:09:28;;;;;;;15.90;5.65;;;6.50;99.90;;;;;;2087995;28;20032;-71
2022/01/05 02:10:29;;;;;;;11.70;4.07;;;6.50;99.90;;;;;;2085312;28;20068;-71
2022/01/05 02:11:33;;;;;;;11.18;3.65;;;6.50;99.90;;;;;;2080879;28;20026;-71
2022/01/05 02:12:34;;;;;;;10.25;4.20;;;6.50;99.90;;;;;;2088864;28;20554;-71
2022/01/05 02:13:34;;;;;;;17.38;4.90;;;6.50;99.90;;;;;;2096902;28;21143;-71
2022/01/05 02:14:35;;;;;;;13.30;4.95;;;6.50;99.90;;;;;;2090345;28;20358;-71
2022/01/05 02:15:36;;;;;;;15.13;4.45;;;6.50;99.90;;;;;;2091126;28;20033;-71
2022/01/05 02:16:41;;;;;;;16.88;4.90;;;6.50;99.90;;;;;;2088507;28;20032;-71
2022/01/05 02:18:09;;;;;;;11.35;4.13;;;6.40;99.90;;;;;;2078661;28;20022;-71
2022/01/05 02:19:11;;;;;;;11.55;4.15;;;6.40;99.90;;;;;;2072188;28;20026;-71
2022/01/05 02:20:33;;;;;;;12.57;4.60;;;6.40;99.90;;;;;;2076172;28;20044;-71
2022/01/05 02:21:36;;;;;;;12.93;4.47;;;6.40;99.90;;;;;;2080883;28;20036;-71
2022/01/05 02:22:37;;;;;;;10.57;4.28;;;6.30;99.90;;;;;;2080925;28;20482;-71
2022/01/05 02:23:38;;;;;;;10.48;4.47;;;6.30;99.90;;;;;;2086298;28;20057;-71
2022/01/05 02:24:39;;;;;;;12.95;3.92;;;6.30;99.90;;;;;;2089523;28;20512;-71
2022/01/05 02:25:39;;;;;;;13.65;4.78;;;6.30;99.90;;;;;;2091542;28;20512;-71
2022/01/05 02:26:42;;;;;;;13.63;4.57;;;6.30;99.90;;;;;;2088727;28;20013;-71
2022/01/05 02:27:44;;;;;;;9.27;3.80;;;6.30;99.90;;;;;;2076263;28;20018;-71
2022/01/05 02:28:45;;;;;;;9.80;3.45;;;6.30;99.90;;;;;;2087070;28;20029;-71
2022/01/05 02:29:46;;;;;;;8.13;3.88;;;6.30;99.90;;;;;;2088020;28;20114;-71
2022/01/05 02:30:51;;;;;;;14.52;4.68;;;6.40;99.90;;;;;;2084451;28;20093;-72
2022/01/05 02:31:52;;;;;;;15.18;3.95;;;6.30;99.90;;;;;;2081878;28;20822;-71
2022/01/05 02:32:52;;;;;;;10.60;3.88;;;6.30;99.90;;;;;;2080796;28;20026;-71
2022/01/05 02:33:53;;;;;;;9.68;3.08;;;6.30;99.90;;;;;;2080577;28;20033;-71
2022/01/05 02:34:54;;;;;;;13.23;3.83;;;6.30;99.90;;;;;;2080912;28;20106;-71
2022/01/05 02:35:54;;;;;;;12.75;4.00;;;6.30;99.90;;;;;;2080865;28;20497;-71
2022/01/05 02:36:55;;;;;;;14.30;3.67;;;6.20;99.90;;;;;;2080931;28;20022;-71
2022/01/05 02:37:55;;;;;;;12.88;3.45;;;6.20;99.90;;;;;;2083468;28;20070;-71
2022/01/05 02:38:56;;;;;;;9.50;3.38;;;6.20;99.90;;;;;;2096854;28;20074;-71
2022/01/05 02:39:57;;;;;;;11.32;3.40;;;6.10;99.90;;;;;;2095718;28;20555;-71
2022/01/05 02:41:05;;;;;;;11.90;3.78;;;6.10;99.90;;;;;;2082963;28;20025;-71
2022/01/05 02:42:06;;;;;;;14.60;4.03;;;6.20;99.90;;;;;;2089134;28;20029;-71
2022/01/05 02:43:07;;;;;;;10.98;3.75;;;6.10;99.90;;;;;;2089183;28;20036;-71
2022/01/05 02:44:07;;;;;;;12.55;4.03;;;6.10;99.90;;;;;;2088941;28;20021;-71
2022/01/05 02:45:10;;;;;;;12.05;4.00;;;6.10;99.90;;;;;;2096969;28;20027;-71
2022/01/05 02:46:19;;;;;;;10.00;3.50;;;6.10;99.90;;;;;;2096043;28;20515;-71
2022/01/05 02:47:20;;;;;;;9.35;4.18;;;6.00;99.90;;;;;;2089430;28;20029;-71
2022/01/05 02:48:20;;;;;;;10.88;3.88;;;6.00;99.90;;;;;;2087828;28;20108;-71
2022/01/05 02:49:21;;;;;;;9.98;3.33;;;6.00;99.90;;;;;;2079515;28;20026;-71
2022/01/05 02:50:22;;;;;;;6.18;2.92;;;6.00;99.90;;;;;;2080684;28;20021;-71
2022/01/05 02:51:23;;;;;;;9.98;3.53;;;6.00;99.90;;;;;;2080267;28;20029;-71
2022/01/05 02:52:24;;;;;;;13.63;4.18;;;6.00;99.90;;;;;;2080040;28;20123;-71
2022/01/05 02:53:24;;;;;;;10.30;4.20;;;6.00;99.90;;;;;;2080867;28;20100;-71
2022/01/05 02:54:25;;;;;;;12.25;4.20;;;6.00;99.90;;;;;;2080758;28;20107;-71
2022/01/05 02:55:25;;;;;;;14.75;3.70;;;6.00;99.90;;;;;;2078441;28;20338;-71
2022/01/05 02:56:26;;;;;;;14.40;4.25;;;6.00;99.90;;;;;;2087738;28;20029;-71
2022/01/05 02:57:26;;;;;;;9.70;3.92;;;6.00;99.90;;;;;;2085391;28;20055;-71
2022/01/05 02:58:27;;;;;;;11.88;3.70;;;6.00;99.90;;;;;;2080460;28;20025;-71
2022/01/05 02:59:28;;;;;;;8.55;3.28;;;6.00;99.90;;;;;;2085946;28;20420;-71
2022/01/05 03:00:29;;;;;;;12.98;4.13;;;6.00;99.90;;;;;;2086506;28;20350;-71
2022/01/05 03:01:31;;;;;;;10.60;3.97;;;5.90;99.90;;;;;;2084889;28;20567;-71
2022/01/05 03:02:31;;;;;;;13.25;4.07;;;5.90;99.90;;;;;;2079044;28;20018;-71
2022/01/05 03:03:32;;;;;;;11.68;4.35;;;5.90;99.90;;;;;;2077037;28;20105;-71
2022/01/05 03:04:32;;;;;;;11.73;3.95;;;5.90;99.90;;;;;;2089015;28;20451;-71
2022/01/05 03:05:33;;;;;;;10.52;3.72;;;5.90;99.90;;;;;;2082835;28;20021;-71
2022/01/05 03:06:34;;;;;;;8.50;3.85;;;5.90;99.90;;;;;;2080509;28;20369;-71
2022/01/05 03:07:39;;;;;;;12.10;4.07;;;5.90;99.90;;;;;;2079133;28;20041;-70
2022/01/05 03:08:39;;;;;;;13.55;4.60;;;5.90;99.90;;;;;;2074759;28;20029;-70
2022/01/05 03:09:40;;;;;;;14.32;4.65;;;5.80;99.90;;;;;;2080179;28;20022;-71
2022/01/05 03:10:40;;;;;;;17.52;4.95;;;5.80;99.90;;;;;;2080409;28;20032;-71
2022/01/05 03:11:41;;;;;;;13.70;4.30;;;5.80;99.90;;;;;;2080622;28;20065;-70
2022/01/05 03:12:43;;;;;;;11.45;4.20;;;5.80;99.90;;;;;;2088778;28;20095;-70
2022/01/05 03:13:44;;;;;;;10.93;4.53;;;5.80;99.90;;;;;;2088606;28;20107;-70
2022/01/05 03:14:44;;;;;;;13.27;4.32;;;5.70;99.90;;;;;;2088852;28;20029;-70
2022/01/05 03:15:45;;;;;;;14.88;4.80;;;5.70;99.90;;;;;;2082490;28;20749;-70
2022/01/05 03:16:46;;;;;;;10.60;4.22;;;5.70;99.90;;;;;;2082678;28;20563;-70
2022/01/05 03:17:46;;;;;;;12.90;5.13;;;5.70;99.90;;;;;;2082699;28;20026;-70
2022/01/05 03:18:47;;;;;;;14.45;5.18;;;5.70;99.90;;;;;;2077568;28;20017;-70
2022/01/05 03:19:47;;;;;;;11.75;4.68;;;5.70;99.90;;;;;;2079840;28;20078;-71
2022/01/05 03:20:48;;;;;;;13.77;5.70;;;5.70;99.90;;;;;;2080408;28;20148;-70
2022/01/05 03:21:49;;;;;;;14.27;5.00;;;5.70;99.90;;;;;;2080215;28;20033;-70
2022/01/05 03:22:50;;;;;;;11.40;4.95;;;5.70;99.90;;;;;;2080852;28;20021;-70
2022/01/05 03:23:50;;;;;;;14.25;5.10;;;5.70;99.90;;;;;;2080144;28;20030;-70
2022/01/05 03:24:51;;;;;;;15.27;4.65;;;5.70;99.90;;;;;;2080488;28;20024;-70
2022/01/05 03:25:54;;;;;;;16.85;5.50;;;5.70;99.90;;;;;;2080249;28;20033;-70
2022/01/05 03:26:54;;;;;;;11.18;4.72;;;5.70;99.90;;;;;;2080470;28;20116;-70
2022/01/05 03:27:55;;;;;;;12.43;4.55;;;5.70;99.90;;;;;;2080251;28;20042;-70
2022/01/05 03:28:56;;;;;;;10.20;4.53;;;5.70;99.90;;;;;;2080643;28;20022;-70
2022/01/05 03:29:56;;;;;;;11.07;4.85;;;5.70;99.90;;;;;;2079373;28;20033;-70
2022/01/05 03:30:57;;;;;;;12.77;4.75;;;5.70;99.90;;;;;;2080064;28;20389;-70
2022/01/05 03:31:58;;;;;;;16.85;5.43;;;5.70;99.90;;;;;;2081677;28;20025;-70
2022/01/05 03:33:59;;;;;;;14.90;5.43;;;5.70;99.90;;;;;;2080839;28;20029;-70
2022/01/05 03:35:00;;;;;;;14.30;5.50;;;5.70;99.90;;;;;;2088120;28;20029;-71
2022/01/05 03:36:00;;;;;;;18.15;5.80;;;5.70;99.90;;;;;;2088168;28;20485;-70
2022/01/05 03:37:01;;;;;;;14.90;5.53;;;5.70;99.90;;;;;;2079806;28;20021;-70
2022/01/05 03:38:03;;;;;;;15.27;5.10;;;5.70;99.90;;;;;;2084073;28;20025;-70
2022/01/05 03:39:03;;;;;;;10.40;4.63;;;5.70;99.90;;;;;;2088855;28;20037;-71
2022/01/05 03:40:05;;;;;;;18.20;5.20;;;5.70;99.90;;;;;;2082537;28;20044;-70
2022/01/05 03:41:05;;;;;;;13.73;4.80;;;5.70;99.90;;;;;;2079930;28;20034;-70
2022/01/05 03:42:06;;;;;;;14.20;5.10;;;5.70;99.90;;;;;;2080420;28;20489;-71
2022/01/05 03:43:08;;;;;;;11.13;4.97;;;5.70;99.90;;;;;;2080435;28;20021;-71
2022/01/05 03:44:08;;;;;;;14.73;5.43;;;5.70;99.90;;;;;;2079781;28;20056;-70
2022/01/05 03:45:09;;;;;;;14.45;4.65;;;5.70;99.90;;;;;;2079688;28;20041;-70
2022/01/05 03:46:10;;;;;;;13.73;4.75;;;5.60;99.90;;;;;;2083338;28;20031;-70
2022/01/05 03:47:10;;;;;;;18.02;5.15;;;5.70;99.90;;;;;;2088002;28;20412;-71
2022/01/05 03:48:13;;;;;;;10.07;4.80;;;5.70;99.90;;;;;;2088286;28;20056;-71
2022/01/05 03:49:14;;;;;;;13.57;5.15;;;5.70;99.90;;;;;;2082403;28;21055;-70
2022/01/05 03:50:15;;;;;;;16.85;4.43;;;5.60;99.90;;;;;;2088666;28;20021;-71
2022/01/05 03:51:15;;;;;;;12.68;4.47;;;5.60;99.90;;;;;;2088142;28;20091;-70
2022/01/05 03:52:16;;;;;;;16.83;5.30;;;5.60;99.90;;;;;;2087686;28;20048;-70
2022/01/05 03:53:17;;;;;;;15.75;4.72;;;5.60;99.90;;;;;;2087787;28;20096;-71
2022/01/05 03:54:18;;;;;;;12.80;4.30;;;5.60;99.90;;;;;;2083848;28;20040;-70
2022/01/05 03:55:19;;;;;;;13.27;4.10;;;5.60;99.90;;;;;;2080317;28;20097;-70
2022/01/05 03:56:20;;;;;;;11.25;4.32;;;5.60;99.90;;;;;;2080346;28;20473;-70
2022/01/05 03:57:20;;;;;;;16.25;4.60;;;5.60;99.90;;;;;;2080109;28;20026;-70
2022/01/05 03:58:21;;;;;;;15.85;4.63;;;5.60;99.90;;;;;;2080251;28;20029;-71
2022/01/05 03:59:21;;;;;;;16.15;5.15;;;5.60;99.90;;;;;;2079240;28;20025;-71
2022/01/05 04:00:24;;;;;;;14.43;4.82;;;5.60;99.90;;;;;;2080140;28;20107;-70
2022/01/05 04:01:25;;;;;;;12.65;3.92;;;5.60;99.90;;;;;;2079082;28;20021;-70
2022/01/05 04:02:26;;;;;;;11.85;4.50;;;5.50;99.90;;;;;;2077795;28;20061;-71
2022/01/05 04:03:26;;;;;;;12.30;4.05;;;5.50;99.90;;;;;;2072067;28;20088;-70
2022/01/05 04:04:27;;;;;;;12.15;3.83;;;5.60;99.90;;;;;;2079654;28;20064;-71
2022/01/05 04:05:28;;;;;;;14.05;4.60;;;5.50;99.90;;;;;;2082049;28;20043;-71
2022/01/05 04:06:28;;;;;;;16.35;4.30;;;5.50;99.90;;;;;;2085300;28;20017;-70
2022/01/05 04:07:29;;;;;;;13.30;4.72;;;5.50;99.90;;;;;;2078955;28;20033;-70
2022/01/05 04:08:29;;;;;;;11.30;4.13;;;5.50;99.90;;;;;;2081668;28;20029;-70
2022/01/05 04:09:30;;;;;;;12.73;4.57;;;5.50;99.90;;;;;;2095685;28;20063;-70
2022/01/05 04:10:31;;;;;;;13.13;4.53;;;5.50;99.90;;;;;;2088264;28;20040;-70
2022/01/05 04:11:31;;;;;;;12.57;4.03;;;5.50;99.90;;;;;;2088296;28;20033;-70
2022/01/05 04:12:32;;;;;;;14.32;4.57;;;5.50;99.90;;;;;;2096105;28;20027;-70
2022/01/05 04:13:33;;;;;;;15.05;4.47;;;5.50;99.90;;;;;;2090204;28;20091;-70
2022/01/05 04:14:33;;;;;;;10.13;4.30;;;5.50;99.90;;;;;;2079933;28;20037;-70
2022/01/05 04:15:34;;;;;;;11.07;3.92;;;5.50;99.90;;;;;;2082296;28;20033;-70
2022/01/05 04:16:34;;;;;;;11.98;4.20;;;5.40;99.90;;;;;;2078020;28;20064;-70
2022/01/05 04:17:35;;;;;;;11.13;4.28;;;5.40;99.90;;;;;;2078901;28;20779;-71
2022/01/05 04:18:36;;;;;;;19.35;4.32;;;5.40;99.90;;;;;;2079466;28;20025;-70
2022/01/05 04:19:36;;;;;;;13.38;4.00;;;5.40;99.90;;;;;;2087853;28;20477;-70
2022/01/05 04:20:37;;;;;;;12.25;4.70;;;5.30;99.90;;;;;;2087721;28;20610;-70
2022/01/05 04:21:37;;;;;;;14.65;4.20;;;5.30;99.90;;;;;;2086917;28;20040;-70
2022/01/05 04:22:38;;;;;;;14.15;4.45;;;5.30;99.90;;;;;;2095857;28;20492;-70
2022/01/05 04:23:39;;;;;;;10.68;4.25;;;5.30;99.90;;;;;;2096012;28;20047;-71
2022/01/05 04:24:39;;;;;;;9.38;3.70;;;5.30;99.90;;;;;;2087712;28;20052;-70
2022/01/05 04:25:40;;;;;;;14.70;4.07;;;5.30;99.90;;;;;;2087828;28;20025;-70
2022/01/05 04:26:41;;;;;;;16.30;3.95;;;5.30;99.90;;;;;;2087116;28;20029;-70
2022/01/05 04:27:41;;;;;;;10.48;4.03;;;5.30;99.90;;;;;;2080299;28;20508;-70
2022/01/05 04:28:42;;;;;;;13.88;3.90;;;5.20;99.90;;;;;;2087063;28;20096;-70
2022/01/05 04:29:45;;;;;;;11.00;3.90;;;5.20;99.90;;;;;;2087685;28;20017;-70
2022/01/05 04:30:46;;;;;;;15.25;4.32;;;5.20;99.90;;;;;;2088186;28;20100;-70
2022/01/05 04:31:46;;;;;;;14.18;3.63;;;5.20;99.90;;;;;;2082104;28;20034;-70
2022/01/05 04:32:47;;;;;;;13.57;3.50;;;5.20;99.90;;;;;;2080048;28;20017;-70
2022/01/05 04:33:47;;;;;;;9.55;3.83;;;5.20;99.90;;;;;;2080306;28;20049;-71
2022/01/05 04:34:48;;;;;;;13.95;4.13;;;5.20;99.90;;;;;;2080012;28;20022;-70
2022/01/05 04:35:49;;;;;;;12.73;3.67;;;5.10;99.90;;;;;;2080457;28;20368;-70
2022/01/05 04:36:49;;;;;;;12.50;3.60;;;5.10;99.90;;;;;;2079652;28;20032;-70
2022/01/05 04:37:50;;;;;;;11.48;3.45;;;5.10;99.90;;;;;;2082424;28;20864;-70
2022/01/05 04:38:50;;;;;;;14.25;4.18;;;5.10;99.90;;;;;;2081840;28;20061;-70
2022/01/05 04:39:51;;;;;;;12.23;4.00;;;5.10;99.90;;;;;;2084611;28;20019;-70
2022/01/05 04:40:51;;;;;;;11.38;4.10;;;5.10;99.90;;;;;;2081775;28;20064;-70
2022/01/05 04:41:52;;;;;;;13.60;3.75;;;5.00;99.90;;;;;;2095982;28;20448;-70
2022/01/05 04:42:53;;;;;;;13.07;4.28;;;5.00;99.90;;;;;;2095877;28;20023;-70
2022/01/05 04:43:53;;;;;;;12.10;4.97;;;5.00;99.90;;;;;;2096233;28;20021;-70
2022/01/05 04:44:54;;;;;;;14.35;4.80;;;5.00;99.90;;;;;;2088149;28;20126;-70
2022/01/05 04:45:55;;;;;;;14.57;4.70;;;5.00;99.90;;;;;;2087037;28;20107;-70
2022/01/05 04:46:56;;;;;;;11.90;3.58;;;4.90;99.90;;;;;;2082617;28;20033;-70
2022/01/05 04:47:57;;;;;;;14.23;4.53;;;4.90;99.90;;;;;;2079913;28;20116;-70
2022/01/05 04:48:58;;;;;;;13.20;4.40;;;4.90;99.90;;;;;;2080010;28;20358;-70
2022/01/05 04:49:58;;;;;;;10.07;4.13;;;4.90;99.90;;;;;;2079643;28;20052;-70
2022/01/05 04:50:59;;;;;;;14.10;4.07;;;4.90;99.90;;;;;;2079501;28;20025;-70
2022/01/05 04:52:00;;;;;;;12.88;3.95;;;4.80;99.90;;;;;;2079402;28;20028;-70
2022/01/05 04:53:00;;;;;;;11.02;3.33;;;4.80;99.90;;;;;;2079866;28;20053;-70
2022/01/05 04:54:01;;;;;;;13.27;3.50;;;4.80;99.90;;;;;;2082283;28;20403;-70
2022/01/05 04:55:01;;;;;;;15.68;4.72;;;4.80;99.90;;;;;;2088461;28;20070;-70
2022/01/05 04:56:02;;;;;;;10.40;3.65;;;4.70;99.90;;;;;;2082841;28;20029;-70
2022/01/05 04:57:03;;;;;;;12.18;3.22;;;4.70;99.90;;;;;;2087869;28;20033;-70
2022/01/05 04:58:03;;;;;;;16.08;3.55;;;4.70;99.90;;;;;;2079026;28;20053;-70
2022/01/05 04:59:04;;;;;;;13.98;3.83;;;4.70;99.90;;;;;;2082996;28;20069;-70
2022/01/05 05:00:05;;;;;;;13.95;3.90;;;4.70;99.90;;;;;;2088099;28;20057;-70
2022/01/05 05:01:06;;;;;;;14.63;4.35;;;4.70;99.90;;;;;;2087756;28;20025;-70
2022/01/05 05:02:06;;;;;;;16.13;4.70;;;4.70;99.90;;;;;;2076020;28;20042;-70
2022/01/05 05:03:07;;;;;;;16.45;4.43;;;4.70;99.90;;;;;;2071828;28;20033;-70
2022/01/05 05:04:07;;;;;;;13.00;3.85;;;4.70;99.90;;;;;;2083971;28;20025;-70
2022/01/05 05:05:08;;;;;;;13.00;3.72;;;4.70;99.90;;;;;;2071921;28;20038;-70
2022/01/05 05:06:09;;;;;;;12.02;4.47;;;4.60;99.90;;;;;;2080059;28;20029;-70
2022/01/05 05:07:09;;;;;;;16.10;3.88;;;4.60;99.90;;;;;;2084214;28;20040;-70
2022/01/05 05:08:10;;;;;;;14.43;4.40;;;4.70;99.90;;;;;;2089525;28;20358;-70
2022/01/05 05:09:10;;;;;;;12.27;3.60;;;4.70;99.90;;;;;;2089728;28;20032;-70
2022/01/05 05:10:11;;;;;;;12.90;3.67;;;4.70;99.90;;;;;;2089358;28;20049;-70
2022/01/05 05:11:11;;;;;;;11.90;3.75;;;4.60;99.90;;;;;;2089763;28;20032;-70
2022/01/05 05:12:12;;;;;;;10.98;3.83;;;4.60;99.90;;;;;;2090373;28;20403;-70
2022/01/05 05:13:12;;;;;;;18.15;4.13;;;4.60;99.90;;;;;;2090671;28;20017;-70
2022/01/05 05:14:13;;;;;;;8.43;3.75;;;4.60;99.90;;;;;;2090456;28;20599;-70
2022/01/05 05:15:14;;;;;;;11.93;4.07;;;4.60;99.90;;;;;;2098921;28;20622;-70
2022/01/05 05:16:14;;;;;;;13.88;3.90;;;4.60;99.90;;;;;;2087684;28;20049;-69
2022/01/05 05:17:15;;;;;;;12.27;3.67;;;4.60;99.90;;;;;;2082958;28;20079;-70
2022/01/05 05:18:15;;;;;;;15.05;3.63;;;4.60;99.90;;;;;;2076730;28;20470;-70
2022/01/05 05:19:16;;;;;;;18.05;4.30;;;4.60;99.90;;;;;;2084497;28;20033;-70